Time;durP1;ratioP1;P1;durP2;ratioP2;P2;SDS_P1;SDS_P2;PMS_P1;PMS_P2;Temp;Humidity;BMP_temperature;BMP_pressure;BME280_temperature;BME280_humidity;BME280_pressure;Samples;Min_cycle;Max_cycle;Signal;HPM_P1;HPM_P2
2021/03/18 16:56:38;;;;;;;46.53;18.55;;;3.50;91.60;;;;;;5115638;27;20480;-91
2021/03/18 16:59:04;;;;;;;49.50;19.63;;;3.50;92.50;;;;;;5115728;28;20027;-94
2021/03/18 17:01:29;;;;;;;52.35;18.33;;;3.60;93.10;;;;;;5127183;28;20453;-92
2021/03/18 17:03:55;;;;;;;45.78;17.83;;;3.60;93.60;;;;;;5110637;28;21223;-91
2021/03/18 17:06:21;;;;;;;50.28;19.27;;;3.80;94.00;;;;;;5113146;28;20037;-91
2021/03/18 17:08:47;;;;;;;66.35;23.95;;;3.90;94.20;;;;;;5111196;28;20024;-90
2021/03/18 17:11:13;;;;;;;49.83;21.17;;;4.00;94.20;;;;;;5111224;28;20027;-92
2021/03/18 17:13:41;;;;;;;48.90;19.90;;;4.10;94.20;;;;;;5107830;28;20107;-90
2021/03/18 17:16:07;;;;;;;53.80;18.40;;;4.20;94.30;;;;;;5111043;28;20027;-91
2021/03/18 17:18:33;;;;;;;50.65;19.10;;;4.20;94.40;;;;;;5110058;28;20429;-90
2021/03/18 17:20:59;;;;;;;50.45;16.40;;;4.30;94.40;;;;;;5110306;28;20043;-91
2021/03/18 17:23:25;;;;;;;44.95;15.70;;;4.40;94.40;;;;;;5110236;28;20104;-91
2021/03/18 17:25:52;;;;;;;51.25;17.70;;;4.50;94.40;;;;;;5110845;28;20012;-91
2021/03/18 17:28:18;;;;;;;43.75;17.55;;;4.50;94.40;;;;;;5110645;28;20483;-91
2021/03/18 17:30:47;;;;;;;47.88;18.45;;;4.60;94.40;;;;;;5110444;28;20024;-90
2021/03/18 17:33:16;;;;;;;63.28;19.75;;;4.60;94.30;;;;;;5110480;28;20468;-90
2021/03/18 17:35:43;;;;;;;47.30;16.92;;;4.70;94.30;;;;;;5108120;28;20077;-92
2021/03/18 17:38:08;;;;;;;52.22;18.63;;;4.70;94.30;;;;;;5110526;28;20020;-91
2021/03/18 17:40:38;;;;;;;48.75;18.85;;;4.70;94.20;;;;;;5107736;28;20062;-92
2021/03/18 17:43:04;;;;;;;59.35;20.73;;;4.70;94.20;;;;;;5110457;28;20016;-90
2021/03/18 17:45:37;;;;;;;56.55;20.63;;;4.80;94.20;;;;;;5110128;28;20114;-91
2021/03/18 17:48:04;;;;;;;46.72;17.80;;;4.80;94.10;;;;;;5110434;28;20016;-91
2021/03/18 17:50:30;;;;;;;50.40;18.08;;;4.80;94.10;;;;;;5108996;28;20506;-91
2021/03/18 17:52:55;;;;;;;48.15;17.98;;;4.70;94.10;;;;;;5110016;28;20024;-91
2021/03/18 17:55:22;;;;;;;37.90;17.10;;;4.70;94.10;;;;;;5108718;28;20384;-93
2021/03/18 17:57:49;;;;;;;54.78;17.63;;;4.70;94.10;;;;;;5107531;28;20012;-91
2021/03/18 18:00:18;;;;;;;62.60;21.42;;;4.70;94.10;;;;;;5110009;28;20027;-90
2021/03/18 18:02:44;;;;;;;49.70;20.30;;;4.60;94.00;;;;;;5108728;28;20349;-90
2021/03/18 18:05:11;;;;;;;49.92;22.02;;;4.60;94.00;;;;;;5109940;28;20020;-91
2021/03/18 18:07:38;;;;;;;67.18;26.77;;;4.60;94.10;;;;;;5098563;28;20016;-91
2021/03/18 18:10:06;;;;;;;64.32;27.63;;;4.60;94.00;;;;;;5096312;28;20047;-90
2021/03/18 18:12:32;;;;;;;70.80;31.90;;;4.60;94.00;;;;;;5096310;28;20024;-91
2021/03/18 18:14:58;;;;;;;67.40;30.52;;;4.60;94.00;;;;;;5094847;28;20028;-90
2021/03/18 18:17:25;;;;;;;62.83;29.25;;;4.60;94.00;;;;;;5096071;28;20469;-92
2021/03/18 18:19:51;;;;;;;64.65;28.98;;;4.60;94.00;;;;;;5096302;28;20059;-91
2021/03/18 18:22:17;;;;;;;57.50;26.70;;;4.60;94.00;;;;;;5096806;28;20073;-91
2021/03/18 18:24:43;;;;;;;59.28;29.70;;;4.60;93.90;;;;;;5101049;28;20441;-91
2021/03/18 18:27:09;;;;;;;73.72;31.83;;;4.60;93.90;;;;;;5076872;28;20024;-93
2021/03/18 18:29:41;;;;;;;64.82;29.55;;;4.50;93.80;;;;;;5074858;28;20055;-92
2021/03/18 18:32:09;;;;;;;61.90;28.63;;;4.50;93.80;;;;;;5099304;28;20028;-92
2021/03/18 18:34:35;;;;;;;57.85;27.23;;;4.50;93.80;;;;;;5087410;28;20035;-91
2021/03/18 18:37:00;;;;;;;63.25;25.90;;;4.50;93.80;;;;;;5091113;28;20024;-91
2021/03/18 18:39:26;;;;;;;53.65;24.55;;;4.50;93.80;;;;;;5096969;28;20111;-90
2021/03/18 18:41:52;;;;;;;56.08;22.83;;;4.50;93.80;;;;;;5095252;28;20056;-91
2021/03/18 18:44:18;;;;;;;47.53;20.35;;;4.40;93.70;;;;;;5096350;28;20028;-92
2021/03/18 18:46:44;;;;;;;48.67;20.08;;;4.40;93.60;;;;;;5096046;28;20016;-90
2021/03/18 18:49:12;;;;;;;43.67;18.17;;;4.40;93.50;;;;;;5094722;28;20119;-90
2021/03/18 18:51:39;;;;;;;45.22;18.35;;;4.40;93.60;;;;;;5096244;28;20020;-94
2021/03/18 18:54:06;;;;;;;42.38;18.48;;;4.40;93.60;;;;;;5095714;28;20024;-91
2021/03/18 18:56:34;;;;;;;45.67;19.35;;;4.40;93.60;;;;;;5095191;28;20047;-90
2021/03/18 18:59:01;;;;;;;43.28;17.70;;;4.30;93.60;;;;;;5095147;28;20441;-91
2021/03/18 19:01:27;;;;;;;40.17;18.13;;;4.30;93.70;;;;;;5091259;28;20028;-91
2021/03/18 19:03:53;;;;;;;50.90;21.40;;;4.30;93.70;;;;;;5095665;28;20024;-92
2021/03/18 19:06:19;;;;;;;51.03;21.30;;;4.30;93.70;;;;;;5095254;28;20016;-92
2021/03/18 19:08:45;;;;;;;40.17;19.77;;;4.20;93.60;;;;;;5093833;28;20376;-92
2021/03/18 19:11:11;;;;;;;40.40;19.42;;;4.20;93.60;;;;;;5094417;28;20024;-93
2021/03/18 19:13:36;;;;;;;34.65;18.88;;;4.20;93.60;;;;;;5094536;28;20494;-90
2021/03/18 19:16:05;;;;;;;40.63;19.67;;;4.10;93.60;;;;;;5094941;28;20020;-92
2021/03/18 19:18:31;;;;;;;34.53;18.02;;;4.10;93.50;;;;;;5087358;28;20028;-91
2021/03/18 19:20:57;;;;;;;41.97;19.00;;;4.10;93.60;;;;;;5090434;28;20020;-91
2021/03/18 19:23:23;;;;;;;41.28;17.48;;;4.00;93.60;;;;;;5093455;28;20043;-92
2021/03/18 19:25:50;;;;;;;36.47;17.13;;;4.00;93.60;;;;;;5092816;28;20473;-90
2021/03/18 19:28:16;;;;;;;39.88;16.83;;;4.00;93.60;;;;;;5093136;28;20028;-91
2021/03/18 19:30:46;;;;;;;39.28;17.20;;;4.00;93.60;;;;;;5094212;28;20032;-92
2021/03/18 19:33:12;;;;;;;37.45;16.63;;;4.00;93.60;;;;;;5094359;28;20045;-92
2021/03/18 19:35:41;;;;;;;31.25;15.32;;;4.00;93.70;;;;;;5093449;28;20059;-92
2021/03/18 19:38:07;;;;;;;29.92;15.52;;;3.90;93.60;;;;;;5094746;28;20024;-92
2021/03/18 19:40:37;;;;;;;32.17;14.90;;;3.90;93.70;;;;;;5094520;28;20077;-91
2021/03/18 19:43:08;;;;;;;29.40;15.10;;;3.90;93.70;;;;;;5091819;28;20072;-92
2021/03/18 19:45:34;;;;;;;29.02;15.00;;;3.90;93.70;;;;;;5093133;28;20051;-91
2021/03/18 19:47:59;;;;;;;36.42;15.00;;;3.80;93.70;;;;;;5094418;28;20396;-91
2021/03/18 19:50:30;;;;;;;26.60;15.15;;;3.80;93.70;;;;;;5093079;28;20375;-90
2021/03/18 19:52:56;;;;;;;27.60;14.27;;;3.80;94.10;;;;;;5094381;28;20023;-90
2021/03/18 19:55:22;;;;;;;31.50;15.02;;;3.80;93.80;;;;;;5094058;28;20052;-89
2021/03/18 19:57:48;;;;;;;28.73;15.18;;;3.80;93.80;;;;;;5092490;28;20077;-90
2021/03/18 20:00:17;;;;;;;27.95;14.55;;;3.70;93.80;;;;;;5092866;28;20098;-90
2021/03/18 20:02:49;;;;;;;30.05;15.27;;;3.70;93.70;;;;;;5093451;28;20103;-92
2021/03/18 20:05:17;;;;;;;27.85;14.00;;;3.70;93.80;;;;;;5094046;28;20027;-91
2021/03/18 20:07:44;;;;;;;30.17;13.95;;;3.70;93.80;;;;;;5094112;28;20012;-92
2021/03/18 20:10:10;;;;;;;26.02;13.75;;;3.70;93.90;;;;;;5093624;28;20032;-89
2021/03/18 20:12:36;;;;;;;28.55;15.75;;;3.70;93.80;;;;;;5094728;28;20024;-92
2021/03/18 20:15:04;;;;;;;28.42;15.35;;;3.70;93.90;;;;;;5093908;28;20464;-90
2021/03/18 20:17:30;;;;;;;27.55;14.60;;;3.70;93.90;;;;;;5093201;28;20032;-91
2021/03/18 20:19:56;;;;;;;30.20;14.52;;;3.70;93.90;;;;;;5094249;28;20081;-91
2021/03/18 20:22:21;;;;;;;23.95;13.95;;;3.70;93.90;;;;;;5094467;28;20028;-90
2021/03/18 20:24:47;;;;;;;23.15;13.57;;;3.70;94.00;;;;;;5093976;28;20498;-91
2021/03/18 20:27:13;;;;;;;23.25;14.40;;;3.70;94.00;;;;;;5093811;28;20468;-90
2021/03/18 20:29:39;;;;;;;27.10;15.75;;;3.70;94.00;;;;;;5094241;28;20027;-91
2021/03/18 20:32:05;;;;;;;27.52;15.63;;;3.70;94.00;;;;;;5094428;28;20120;-91
2021/03/18 20:39:06;;;;;;;22.48;13.02;;;3.60;93.30;;;;;;5060836;27;20714;-92
2021/03/18 20:41:32;;;;;;;27.80;14.45;;;3.50;93.40;;;;;;5051213;28;20026;-92
2021/03/18 20:43:59;;;;;;;23.65;14.95;;;3.50;93.50;;;;;;5050312;28;20022;-93
2021/03/18 20:46:25;;;;;;;27.90;15.30;;;3.50;93.70;;;;;;5051533;28;20021;-94
